Time,TemperatureF,DewpointF,PressureIn,WindDirection,WindDirectionDegrees,WindSpeedMPH,WindSpeedGustMPH,Humidity,HourlyPrecipIn,Conditions,Clouds,dailyrainin,SoftwareType,DateUTC
2013-10-04 00:10:00,32.0,28.3,30.26,SSE,157,0.0,-999.0,86,-99.99,,,0.00,Acu-Link.com,2013-10-04 07:10:00,
2013-10-04 00:25:00,32.0,28.3,30.27,ESE,112,0.0,-999.0,86,-99.99,,,0.00,Acu-Link.com,2013-10-04 07:25:00,
2013-10-04 00:41:00,32.0,28.6,30.27,ESE,112,0.0,-999.0,87,-99.99,,,0.00,Acu-Link.com,2013-10-04 07:41:00,
2013-10-04 00:56:00,32.0,28.6,30.26,SSE,157,0.0,-999.0,87,-99.99,,,0.00,Acu-Link.com,2013-10-04 07:56:00,
2013-10-04 01:11:00,30.2,27.1,30.26,SSE,157,0.0,-999.0,88,-99.99,,,0.00,Acu-Link.com,2013-10-04 08:11:00,
2013-10-04 01:26:00,30.2,27.1,30.26,East,90,0.0,-999.0,88,-99.99,,,0.00,Acu-Link.com,2013-10-04 08:26:00,
2013-10-04 01:41:00,30.2,27.4,30.25,South,180,0.0,-999.0,89,-99.99,,,0.00,Acu-Link.com,2013-10-04 08:41:00,
2013-10-04 01:56:00,30.2,27.6,30.25,SSW,202,0.0,-999.0,90,-99.99,,,0.00,Acu-Link.com,2013-10-04 08:56:00,
2013-10-04 02:11:00,30.2,27.6,30.27,South,180,0.0,-999.0,90,-99.99,,,0.00,Acu-Link.com,2013-10-04 09:11:00,
2013-10-04 02:27:00,30.2,28.4,30.26,ESE,112,0.0,-999.0,93,-99.99,,,0.00,Acu-Link.com,2013-10-04 09:27:00,
2013-10-04 02:42:00,30.2,27.9,30.27,SSW,202,0.0,-999.0,91,-99.99,,,0.00,Acu-Link.com,2013-10-04 09:42:00,
2013-10-04 02:57:00,30.2,29.7,30.26,East,90,0.0,-999.0,98,-99.99,,,0.00,Acu-Link.com,2013-10-04 09:57:00,
2013-10-04 03:12:00,30.2,29.7,30.26,WNW,292,0.0,-999.0,98,-99.99,,,0.00,Acu-Link.com,2013-10-04 10:12:00,
2013-10-04 03:27:00,30.2,29.7,30.26,East,90,0.0,-999.0,98,-99.99,,,0.00,Acu-Link.com,2013-10-04 10:27:00,
2013-10-04 03:42:00,30.2,29.7,30.26,SW,225,0.0,-999.0,98,-99.99,,,0.00,Acu-Link.com,2013-10-04 10:42:00,
2013-10-04 03:57:00,30.2,29.7,30.25,West,270,0.0,-999.0,98,-99.99,,,0.00,Acu-Link.com,2013-10-04 10:57:00,
2013-10-04 04:12:00,30.2,29.7,30.25,WNW,292,0.0,-999.0,98,-99.99,,,0.00,Acu-Link.com,2013-10-04 11:12:00,
2013-10-04 04:27:00,30.2,29.7,30.26,ESE,112,0.0,-999.0,98,-99.99,,,0.00,Acu-Link.com,2013-10-04 11:27:00,
2013-10-04 04:42:00,30.2,29.7,30.24,ESE,112,0.0,-999.0,98,-99.99,,,0.00,Acu-Link.com,2013-10-04 11:42:00,
2013-10-04 04:57:00,32.0,31.5,30.21,ENE,67,2.0,-999.0,98,-99.99,,,0.00,Acu-Link.com,2013-10-04 11:57:00,
2013-10-04 05:13:00,32.0,29.4,30.22,SSW,202,1.6,-999.0,90,-99.99,,,0.00,Acu-Link.com,2013-10-04 12:13:00,
2013-10-04 05:28:00,32.0,28.9,30.23,ESE,112,2.0,-999.0,88,-99.99,,,0.00,Acu-Link.com,2013-10-04 12:28:00,
2013-10-04 05:43:00,32.0,28.9,30.22,SE,135,1.6,-999.0,88,-99.99,,,0.00,Acu-Link.com,2013-10-04 12:43:00,
2013-10-04 05:58:00,32.0,28.9,30.22,East,90,0.0,-999.0,88,-99.99,,,0.00,Acu-Link.com,2013-10-04 12:58:00,
2013-10-04 06:13:00,32.0,28.9,30.23,NNE,22,0.0,-999.0,88,-99.99,,,0.00,Acu-Link.com,2013-10-04 13:13:00,
2013-10-04 06:28:00,32.0,28.9,30.23,NNW,337,1.6,-999.0,88,-99.99,,,0.00,Acu-Link.com,2013-10-04 13:28:00,
2013-10-04 06:43:00,32.0,28.9,30.25,ESE,112,0.0,-999.0,88,-99.99,,,0.00,Acu-Link.com,2013-10-04 13:43:00,
2013-10-04 06:58:00,32.0,29.1,30.24,ENE,67,0.0,-999.0,89,-99.99,,,0.00,Acu-Link.com,2013-10-04 13:58:00,
2013-10-04 07:13:00,32.0,29.4,30.24,SSW,202,0.0,-999.0,90,-99.99,,,0.00,Acu-Link.com,2013-10-04 14:13:00,
2013-10-04 07:28:00,30.2,27.6,30.24,South,180,1.6,-999.0,90,-99.99,,,0.00,Acu-Link.com,2013-10-04 14:28:00,
2013-10-04 07:44:00,32.0,31.5,30.24,ESE,112,1.6,-999.0,98,-99.99,,,0.00,Acu-Link.com,2013-10-04 14:44:00,
2013-10-04 07:59:00,32.0,29.1,30.25,ESE,112,2.7,-999.0,89,-99.99,,,0.00,Acu-Link.com,2013-10-04 14:59:00,
2013-10-04 08:14:00,33.8,30.3,30.25,ESE,112,2.0,-999.0,87,-99.99,,,0.00,Acu-Link.com,2013-10-04 15:14:00,
2013-10-04 08:29:00,35.6,31.0,30.25,ESE,112,2.7,-999.0,83,-99.99,,,0.00,Acu-Link.com,2013-10-04 15:29:00,
2013-10-04 08:44:00,37.4,31.8,30.22,ESE,112,2.0,-999.0,80,-99.99,,,0.00,Acu-Link.com,2013-10-04 15:44:00,
2013-10-04 08:59:00,37.4,30.9,30.23,East,90,2.7,-999.0,77,-99.99,,,0.00,Acu-Link.com,2013-10-04 15:59:00,
2013-10-04 09:15:00,39.2,32.0,30.24,ESE,112,2.7,-999.0,75,-99.99,,,0.00,Acu-Link.com,2013-10-04 16:15:00,
2013-10-04 09:30:00,41.0,33.4,30.24,ESE,112,2.7,-999.0,74,-99.99,,,0.00,Acu-Link.com,2013-10-04 16:30:00,
2013-10-04 09:45:00,41.0,33.4,30.22,ESE,112,2.0,-999.0,74,-99.99,,,0.00,Acu-Link.com,2013-10-04 16:45:00,
2013-10-04 10:00:00,41.0,33.0,30.22,NW,315,2.7,-999.0,73,-99.99,,,0.00,Acu-Link.com,2013-10-04 17:00:00,
2013-10-04 10:15:00,41.0,33.0,30.22,East,90,2.7,-999.0,73,-99.99,,,0.00,Acu-Link.com,2013-10-04 17:15:00,
2013-10-04 10:31:00,42.8,34.4,30.22,ESE,112,1.6,-999.0,72,-99.99,,,0.00,Acu-Link.com,2013-10-04 17:31:00,
2013-10-04 11:01:00,44.6,35.1,30.22,SSE,157,1.1,-999.0,69,-99.99,,,0.00,Acu-Link.com,2013-10-04 18:01:00,
2013-10-04 11:16:00,46.4,35.3,30.21,South,180,2.0,-999.0,65,-99.99,,,0.00,Acu-Link.com,2013-10-04 18:16:00,
2013-10-04 11:31:00,46.4,34.1,30.21,ESE,112,4.7,-999.0,62,-99.99,,,0.00,Acu-Link.com,2013-10-04 18:31:00,
2013-10-04 11:46:00,46.4,32.9,30.20,ESE,112,3.1,-999.0,59,-99.99,,,0.00,Acu-Link.com,2013-10-04 18:46:00,
2013-10-04 12:02:00,46.4,32.9,30.19,ESE,112,2.7,-999.0,59,-99.99,,,0.00,Acu-Link.com,2013-10-04 19:02:00,
2013-10-04 12:17:00,50.0,34.0,30.19,SW,225,3.1,-999.0,54,-99.99,,,0.00,Acu-Link.com,2013-10-04 19:17:00,
2013-10-04 12:32:00,50.0,34.9,30.19,NW,315,3.1,-999.0,56,-99.99,,,0.00,Acu-Link.com,2013-10-04 19:32:00,
2013-10-04 12:47:00,51.8,35.7,30.18,SE,135,2.0,-999.0,54,-99.99,,,0.00,Acu-Link.com,2013-10-04 19:47:00,
2013-10-04 13:02:00,51.8,35.2,30.18,SW,225,1.1,-999.0,53,-99.99,,,0.00,Acu-Link.com,2013-10-04 20:02:00,
2013-10-04 13:18:00,51.8,35.2,30.18,SE,135,2.0,-999.0,53,-99.99,,,0.00,Acu-Link.com,2013-10-04 20:18:00,
2013-10-04 13:33:00,53.6,35.4,30.17,SE,135,2.7,-999.0,50,-99.99,,,0.00,Acu-Link.com,2013-10-04 20:33:00,
2013-10-04 13:48:00,53.6,34.9,30.15,ESE,112,2.7,-999.0,49,-99.99,,,0.00,Acu-Link.com,2013-10-04 20:48:00,
2013-10-04 14:03:00,51.8,34.3,30.14,ESE,112,3.1,-999.0,51,-99.99,,,0.00,Acu-Link.com,2013-10-04 21:03:00,
2013-10-04 14:19:00,53.6,35.4,30.12,ESE,112,2.7,-999.0,50,-99.99,,,0.00,Acu-Link.com,2013-10-04 21:19:00,
2013-10-04 14:34:00,53.6,35.9,30.13,NNW,337,1.6,-999.0,51,-99.99,,,0.00,Acu-Link.com,2013-10-04 21:34:00,
2013-10-04 14:49:00,53.6,35.4,30.13,East,90,2.7,-999.0,50,-99.99,,,0.00,Acu-Link.com,2013-10-04 21:49:00,
2013-10-04 15:04:00,53.6,35.4,30.12,ENE,67,4.0,-999.0,50,-99.99,,,0.00,Acu-Link.com,2013-10-04 22:04:00,
2013-10-04 15:19:00,53.6,35.4,30.13,SE,135,2.7,-999.0,50,-99.99,,,0.00,Acu-Link.com,2013-10-04 22:19:00,
2013-10-04 15:34:00,53.6,36.4,30.12,SE,135,2.0,-999.0,52,-99.99,,,0.00,Acu-Link.com,2013-10-04 22:34:00,
2013-10-04 15:49:00,53.6,35.9,30.12,SE,135,1.6,-999.0,51,-99.99,,,0.00,Acu-Link.com,2013-10-04 22:49:00,
2013-10-04 16:04:00,53.6,36.4,30.12,East,90,2.7,-999.0,52,-99.99,,,0.00,Acu-Link.com,2013-10-04 23:04:00,
2013-10-04 16:19:00,53.6,36.9,30.11,WSW,247,3.1,-999.0,53,-99.99,,,0.00,Acu-Link.com,2013-10-04 23:19:00,
2013-10-04 16:34:00,51.8,36.6,30.12,ESE,112,2.0,-999.0,56,-99.99,,,0.00,Acu-Link.com,2013-10-04 23:34:00,
2013-10-04 16:50:00,51.8,37.1,30.12,SE,135,2.0,-999.0,57,-99.99,,,0.00,Acu-Link.com,2013-10-04 23:50:00,
2013-10-04 17:05:00,51.8,37.5,30.12,ESE,112,2.0,-999.0,58,-99.99,,,0.00,Acu-Link.com,2013-10-05 00:05:00,
2013-10-04 17:20:00,50.0,37.1,30.12,ESE,112,2.0,-999.0,61,-99.99,,,0.00,Acu-Link.com,2013-10-05 00:20:00,
2013-10-04 17:35:00,50.0,37.9,30.11,ESE,112,3.1,-999.0,63,-99.99,,,0.00,Acu-Link.com,2013-10-05 00:35:00,
2013-10-04 17:50:00,50.0,37.9,30.11,East,90,1.6,-999.0,63,-99.99,,,0.00,Acu-Link.com,2013-10-05 00:50:00,
2013-10-04 18:05:00,48.2,36.6,30.12,ESE,112,1.6,-999.0,64,-99.99,,,0.00,Acu-Link.com,2013-10-05 01:05:00,
2013-10-04 18:20:00,48.2,36.6,30.10,East,90,3.1,-999.0,64,-99.99,,,0.00,Acu-Link.com,2013-10-05 01:20:00,
2013-10-04 18:36:00,48.2,37.0,30.10,ESE,112,2.0,-999.0,65,-99.99,,,0.00,Acu-Link.com,2013-10-05 01:36:00,
2013-10-04 18:51:00,48.2,38.5,30.10,East,90,2.0,-999.0,69,-99.99,,,0.00,Acu-Link.com,2013-10-05 01:51:00,
2013-10-04 19:06:00,46.4,37.9,30.10,SSW,202,1.1,-999.0,72,-99.99,,,0.00,Acu-Link.com,2013-10-05 02:06:00,
2013-10-04 19:21:00,46.4,38.6,30.11,ESE,112,2.0,-999.0,74,-99.99,,,0.00,Acu-Link.com,2013-10-05 02:21:00,
2013-10-04 19:36:00,46.4,39.9,30.11,ESE,112,3.1,-999.0,78,-99.99,,,0.00,Acu-Link.com,2013-10-05 02:36:00,
2013-10-04 19:51:00,44.6,38.2,30.11,East,90,2.0,-999.0,78,-99.99,,,0.00,Acu-Link.com,2013-10-05 02:51:00,
2013-10-04 20:06:00,44.6,37.2,30.10,ESE,112,2.7,-999.0,75,-99.99,,,0.00,Acu-Link.com,2013-10-05 03:06:00,
2013-10-04 20:21:00,46.4,38.9,30.10,ESE,112,2.7,-999.0,75,-99.99,,,0.94,Acu-Link.com,2013-10-05 03:21:00,
2013-10-04 20:37:00,46.4,38.9,30.11,ESE,112,3.1,-999.0,75,-99.99,,,0.94,Acu-Link.com,2013-10-05 03:37:00,
2013-10-04 20:52:00,46.4,38.9,30.10,ESE,112,2.7,-999.0,75,-99.99,,,0.94,Acu-Link.com,2013-10-05 03:52:00,
2013-10-04 21:07:00,46.4,39.3,30.10,ESE,112,2.0,-999.0,76,-99.99,,,0.94,Acu-Link.com,2013-10-05 04:07:00,
2013-10-04 21:22:00,46.4,38.9,30.10,ESE,112,1.1,-999.0,75,-99.99,,,0.94,Acu-Link.com,2013-10-05 04:22:00,
2013-10-04 21:38:00,46.4,38.6,30.10,ENE,67,2.7,-999.0,74,-99.99,,,0.94,Acu-Link.com,2013-10-05 04:38:00,
2013-10-04 21:53:00,46.4,38.2,30.10,ENE,67,2.0,-999.0,73,-99.99,,,0.94,Acu-Link.com,2013-10-05 04:53:00,
2013-10-04 22:08:00,46.4,37.9,30.10,East,90,2.7,-999.0,72,-99.99,,,0.94,Acu-Link.com,2013-10-05 05:08:00,
2013-10-04 22:23:00,46.4,37.9,30.10,ESE,112,1.6,-999.0,72,-99.99,,,0.94,Acu-Link.com,2013-10-05 05:23:00,
2013-10-04 22:38:00,46.4,37.2,30.10,East,90,2.0,-999.0,70,-99.99,,,0.94,Acu-Link.com,2013-10-05 05:38:00,
2013-10-04 22:54:00,46.4,37.2,30.10,East,90,2.7,-999.0,70,-99.99,,,0.94,Acu-Link.com,2013-10-05 05:54:00,
2013-10-04 23:09:00,46.4,36.8,30.10,East,90,2.0,-999.0,69,-99.99,,,0.94,Acu-Link.com,2013-10-05 06:09:00,
2013-10-04 23:25:00,46.4,36.4,30.10,SE,135,2.7,-999.0,68,-99.99,,,0.94,Acu-Link.com,2013-10-05 06:25:00,
2013-10-04 23:40:00,46.4,36.4,30.09,East,90,2.7,-999.0,68,-99.99,,,0.94,Acu-Link.com,2013-10-05 06:40:00,
2013-10-04 23:55:00,46.4,36.4,30.10,ESE,112,2.0,-999.0,68,-99.99,,,0.94,Acu-Link.com,2013-10-05 06:55:00,